Aviation Digital Data Service (ADDS)

Output produced by METARs form (0716 UTC 19 February 2019)
found at http://www.aviationweather.gov/metar/data/
 
Forecast for: AMD
Text: TAF AMD LPST 190703Z 1907/1915 36007KT 9999 FEW020
Forecast period: 0700 to 1500 UTC 19 February 2019
Forecast type: FROM: standard forecast or significant change
Winds: from the N (360 degrees) at 8 MPH (7 knots; 3.6 m/s)
Visibility: 6 or more miles 10+ km)
Ceiling: at least 12,000 feet AGL
Clouds: few clouds at 2000 feet AGL
Weather: no significant weather forecast for this period